sensor_id;sensor_type;location;lat;lon;timestamp;pressure;altitude;pressure_sealevel;temperature;humidity
73518;BME280;61766;60.318;25.044;2022-10-03T00:00:00;100948.55;;;11.19;38.49
73518;BME280;61766;60.318;25.044;2022-10-03T00:04:44;100946.83;;;11.20;38.63
73518;BME280;61766;60.318;25.044;2022-10-03T00:07:06;100943.37;;;11.47;38.78
73518;BME280;61766;60.318;25.044;2022-10-03T00:09:36;100941.18;;;11.51;38.74
73518;BME280;61766;60.318;25.044;2022-10-03T00:12:01;100940.27;;;11.54;38.53
73518;BME280;61766;60.318;25.044;2022-10-03T00:14:20;100939.27;;;11.38;38.56
73518;BME280;61766;60.318;25.044;2022-10-03T00:16:47;100935.67;;;11.37;38.20
73518;BME280;61766;60.318;25.044;2022-10-03T00:19:13;100932.56;;;11.12;38.62
73518;BME280;61766;60.318;25.044;2022-10-03T00:21:41;100931.45;;;11.37;38.45
73518;BME280;61766;60.318;25.044;2022-10-03T00:24:04;100931.96;;;11.39;38.53
73518;BME280;61766;60.318;25.044;2022-10-03T00:26:27;100930.15;;;11.63;38.36
73518;BME280;61766;60.318;25.044;2022-10-03T00:28:54;100932.27;;;11.10;38.38
73518;BME280;61766;60.318;25.044;2022-10-03T00:31:14;100927.39;;;11.26;38.37
73518;BME280;61766;60.318;25.044;2022-10-03T00:33:48;100927.56;;;11.50;38.39
73518;BME280;61766;60.318;25.044;2022-10-03T00:36:06;100930.54;;;11.54;38.64
73518;BME280;61766;60.318;25.044;2022-10-03T00:38:41;100931.39;;;11.58;38.41
73518;BME280;61766;60.318;25.044;2022-10-03T00:41:07;100932.27;;;11.38;38.49
73518;BME280;61766;60.318;25.044;2022-10-03T00:46:00;100929.88;;;11.35;38.46
73518;BME280;61766;60.318;25.044;2022-10-03T00:50:45;100927.76;;;11.59;38.58
73518;BME280;61766;60.318;25.044;2022-10-03T00:53:08;100929.21;;;11.64;38.55
73518;BME280;61766;60.318;25.044;2022-10-03T00:55:33;100931.35;;;11.12;38.65
73518;BME280;61766;60.318;25.044;2022-10-03T00:58:02;100933.71;;;11.67;38.62
73518;BME280;61766;60.318;25.044;2022-10-03T01:00:18;100934.57;;;11.74;38.66
73518;BME280;61766;60.318;25.044;2022-10-03T01:02:47;100937.10;;;11.39;38.80
73518;BME280;61766;60.318;25.044;2022-10-03T01:05:12;100938.07;;;11.50;38.73
73518;BME280;61766;60.318;25.044;2022-10-03T01:10:01;100939.68;;;11.87;38.60
73518;BME280;61766;60.318;25.044;2022-10-03T01:12:30;100937.75;;;11.41;38.41
73518;BME280;61766;60.318;25.044;2022-10-03T01:14:57;100936.81;;;11.84;38.94
73518;BME280;61766;60.318;25.044;2022-10-03T01:17:16;100937.93;;;11.54;39.25
73518;BME280;61766;60.318;25.044;2022-10-03T01:19:50;100938.59;;;11.65;38.85
73518;BME280;61766;60.318;25.044;2022-10-03T01:22:10;100938.06;;;11.68;38.63
73518;BME280;61766;60.318;25.044;2022-10-03T01:24:38;100939.45;;;11.72;38.62
73518;BME280;61766;60.318;25.044;2022-10-03T01:26:54;100943.27;;;11.71;38.63
73518;BME280;61766;60.318;25.044;2022-10-03T01:29:18;100946.00;;;11.74;38.63
73518;BME280;61766;60.318;25.044;2022-10-03T01:31:44;100947.88;;;11.53;38.61
73518;BME280;61766;60.318;25.044;2022-10-03T01:34:11;100946.44;;;11.53;38.52
73518;BME280;61766;60.318;25.044;2022-10-03T01:36:37;100946.76;;;11.63;38.64
73518;BME280;61766;60.318;25.044;2022-10-03T01:38:59;100946.56;;;11.42;38.62
73518;BME280;61766;60.318;25.044;2022-10-03T01:41:26;100947.03;;;11.46;38.59
73518;BME280;61766;60.318;25.044;2022-10-03T01:43:49;100948.66;;;11.70;38.33
73518;BME280;61766;60.318;25.044;2022-10-03T01:46:16;100948.06;;;11.60;38.32
73518;BME280;61766;60.318;25.044;2022-10-03T01:48:42;100952.21;;;11.53;38.44
73518;BME280;61766;60.318;25.044;2022-10-03T01:51:06;100956.44;;;11.52;38.57
73518;BME280;61766;60.318;25.044;2022-10-03T01:53:37;100957.03;;;11.29;38.57
73518;BME280;61766;60.318;25.044;2022-10-03T01:55:57;100953.67;;;11.78;38.50
73518;BME280;61766;60.318;25.044;2022-10-03T01:58:24;100953.24;;;11.51;38.40
73518;BME280;61766;60.318;25.044;2022-10-03T02:00:50;100952.22;;;11.47;38.39
73518;BME280;61766;60.318;25.044;2022-10-03T02:03:13;100951.59;;;11.36;38.60
73518;BME280;61766;60.318;25.044;2022-10-03T02:05:40;100950.75;;;11.64;38.59
73518;BME280;61766;60.318;25.044;2022-10-03T02:08:02;100952.17;;;11.63;38.80
73518;BME280;61766;60.318;25.044;2022-10-03T02:10:32;100952.63;;;11.59;38.71
73518;BME280;61766;60.318;25.044;2022-10-03T02:12:55;100954.08;;;11.37;38.55
73518;BME280;61766;60.318;25.044;2022-10-03T02:15:18;100953.10;;;11.42;38.94
73518;BME280;61766;60.318;25.044;2022-10-03T02:17:45;100956.46;;;11.41;38.83
73518;BME280;61766;60.318;25.044;2022-10-03T02:20:08;100954.39;;;11.46;38.74
73518;BME280;61766;60.318;25.044;2022-10-03T02:22:31;100957.20;;;11.43;38.78
73518;BME280;61766;60.318;25.044;2022-10-03T02:25:04;100959.46;;;11.45;38.62
73518;BME280;61766;60.318;25.044;2022-10-03T02:34:46;100961.21;;;11.26;38.73
73518;BME280;61766;60.318;25.044;2022-10-03T02:49:22;100961.34;;;10.49;38.77
73518;BME280;61766;60.318;25.044;2022-10-03T02:51:41;100961.25;;;10.97;38.84
73518;BME280;61766;60.318;25.044;2022-10-03T02:56:32;100965.78;;;11.10;38.73
73518;BME280;61766;60.318;25.044;2022-10-03T02:58:58;100967.81;;;11.12;38.63
73518;BME280;61766;60.318;25.044;2022-10-03T03:01:25;100967.68;;;10.78;38.77
73518;BME280;61766;60.318;25.044;2022-10-03T03:03:48;100966.35;;;11.06;38.65
73518;BME280;61766;60.318;25.044;2022-10-03T03:06:14;100965.48;;;10.95;39.04
73518;BME280;61766;60.318;25.044;2022-10-03T03:08:46;100962.01;;;11.03;38.95
73518;BME280;61766;60.318;25.044;2022-10-03T03:11:06;100960.22;;;10.95;38.92
73518;BME280;61766;60.318;25.044;2022-10-03T03:18:14;100959.97;;;10.73;38.90
73518;BME280;61766;60.318;25.044;2022-10-03T03:20:49;100958.45;;;11.01;38.80
73518;BME280;61766;60.318;25.044;2022-10-03T03:23:09;100959.01;;;11.02;38.68
73518;BME280;61766;60.318;25.044;2022-10-03T03:25:34;100958.45;;;11.04;38.69
73518;BME280;61766;60.318;25.044;2022-10-03T03:27:56;100958.81;;;11.12;38.58
73518;BME280;61766;60.318;25.044;2022-10-03T03:30:14;100962.48;;;11.17;38.56
73518;BME280;61766;60.318;25.044;2022-10-03T03:32:47;100964.56;;;11.21;38.44
73518;BME280;61766;60.318;25.044;2022-10-03T03:35:09;100963.63;;;11.20;38.41
73518;BME280;61766;60.318;25.044;2022-10-03T03:37:34;100965.69;;;10.95;38.28
73518;BME280;61766;60.318;25.044;2022-10-03T03:40:06;100964.67;;;11.37;38.37
73518;BME280;61766;60.318;25.044;2022-10-03T03:42:31;100967.87;;;11.06;38.53
73518;BME280;61766;60.318;25.044;2022-10-03T03:44:54;100968.79;;;10.90;38.65
73518;BME280;61766;60.318;25.044;2022-10-03T03:47:19;100969.14;;;10.68;38.80
73518;BME280;61766;60.318;25.044;2022-10-03T03:49:48;100969.29;;;10.95;38.67
73518;BME280;61766;60.318;25.044;2022-10-03T03:52:19;100972.09;;;11.06;38.80
73518;BME280;61766;60.318;25.044;2022-10-03T03:56:58;100974.26;;;10.68;38.94
73518;BME280;61766;60.318;25.044;2022-10-03T03:59:25;100971.85;;;10.76;39.04
73518;BME280;61766;60.318;25.044;2022-10-03T04:01:50;100972.23;;;10.72;39.03
73518;BME280;61766;60.318;25.044;2022-10-03T04:04:15;100972.82;;;10.65;39.08
73518;BME280;61766;60.318;25.044;2022-10-03T04:06:41;100972.37;;;10.69;38.88
73518;BME280;61766;60.318;25.044;2022-10-03T04:11:28;100976.01;;;10.71;38.94
73518;BME280;61766;60.318;25.044;2022-10-03T04:14:05;100981.57;;;10.61;39.17
73518;BME280;61766;60.318;25.044;2022-10-03T04:16:31;100982.17;;;10.71;38.98
73518;BME280;61766;60.318;25.044;2022-10-03T04:18:47;100983.42;;;10.65;38.94
73518;BME280;61766;60.318;25.044;2022-10-03T04:23:44;100983.33;;;10.51;39.03
73518;BME280;61766;60.318;25.044;2022-10-03T04:26:03;100980.00;;;10.50;38.99
73518;BME280;61766;60.318;25.044;2022-10-03T04:28:30;100982.18;;;10.70;39.17
73518;BME280;61766;60.318;25.044;2022-10-03T04:30:51;100982.79;;;10.71;39.15
73518;BME280;61766;60.318;25.044;2022-10-03T04:33:17;100986.30;;;10.53;39.23
73518;BME280;61766;60.318;25.044;2022-10-03T04:35:47;100986.71;;;10.58;39.25
73518;BME280;61766;60.318;25.044;2022-10-03T04:38:07;100990.86;;;10.85;39.27
73518;BME280;61766;60.318;25.044;2022-10-03T04:40:32;100990.05;;;10.62;39.04
73518;BME280;61766;60.318;25.044;2022-10-03T04:42:58;100989.73;;;10.64;38.95
73518;BME280;61766;60.318;25.044;2022-10-03T04:45:30;100989.19;;;10.67;38.94
73518;BME280;61766;60.318;25.044;2022-10-03T04:47:46;100991.54;;;10.69;38.76
73518;BME280;61766;60.318;25.044;2022-10-03T04:52:39;100999.46;;;10.59;39.13
73518;BME280;61766;60.318;25.044;2022-10-03T04:55:04;101000.28;;;11.05;38.92
73518;BME280;61766;60.318;25.044;2022-10-03T04:57:30;100997.98;;;10.61;39.00
73518;BME280;61766;60.318;25.044;2022-10-03T04:59:51;101003.46;;;10.61;38.99
73518;BME280;61766;60.318;25.044;2022-10-03T05:02:23;101005.28;;;10.60;38.99
73518;BME280;61766;60.318;25.044;2022-10-03T05:04:55;101009.48;;;10.60;39.08
73518;BME280;61766;60.318;25.044;2022-10-03T05:07:10;101008.62;;;10.83;38.95
73518;BME280;61766;60.318;25.044;2022-10-03T05:09:36;101011.14;;;10.55;38.95
73518;BME280;61766;60.318;25.044;2022-10-03T05:12:00;101010.95;;;10.75;39.11
73518;BME280;61766;60.318;25.044;2022-10-03T05:14:25;101013.78;;;10.51;39.30
73518;BME280;61766;60.318;25.044;2022-10-03T05:16:50;101014.49;;;10.57;39.35
73518;BME280;61766;60.318;25.044;2022-10-03T05:19:21;101013.29;;;10.86;39.24
73518;BME280;61766;60.318;25.044;2022-10-03T05:21:39;101013.19;;;11.12;39.27
73518;BME280;61766;60.318;25.044;2022-10-03T05:24:12;101009.40;;;11.14;39.12
73518;BME280;61766;60.318;25.044;2022-10-03T05:26:33;101013.52;;;10.38;39.28
73518;BME280;61766;60.318;25.044;2022-10-03T05:28:56;101011.04;;;10.71;39.38
73518;BME280;61766;60.318;25.044;2022-10-03T05:31:25;101009.69;;;10.76;39.27
73518;BME280;61766;60.318;25.044;2022-10-03T05:33:48;101009.35;;;10.78;39.45
73518;BME280;61766;60.318;25.044;2022-10-03T05:36:15;101009.99;;;10.73;39.46
73518;BME280;61766;60.318;25.044;2022-10-03T05:38:51;101008.59;;;10.73;39.59
73518;BME280;61766;60.318;25.044;2022-10-03T05:41:02;101008.79;;;10.94;39.95
73518;BME280;61766;60.318;25.044;2022-10-03T05:43:31;101011.36;;;10.75;39.94
73518;BME280;61766;60.318;25.044;2022-10-03T05:45:56;101013.74;;;10.87;39.84
73518;BME280;61766;60.318;25.044;2022-10-03T05:48:27;101014.81;;;11.06;40.04
73518;BME280;61766;60.318;25.044;2022-10-03T05:50:52;101015.02;;;11.03;40.32
73518;BME280;61766;60.318;25.044;2022-10-03T05:53:17;101018.60;;;10.35;40.37
73518;BME280;61766;60.318;25.044;2022-10-03T05:55:39;101018.38;;;10.85;40.42
73518;BME280;61766;60.318;25.044;2022-10-03T05:58:14;101018.51;;;11.02;40.54
73518;BME280;61766;60.318;25.044;2022-10-03T06:00:22;101022.32;;;10.84;40.92
73518;BME280;61766;60.318;25.044;2022-10-03T06:05:19;101021.42;;;10.28;41.39
73518;BME280;61766;60.318;25.044;2022-10-03T06:07:47;101021.54;;;10.33;41.27
73518;BME280;61766;60.318;25.044;2022-10-03T06:12:32;101025.75;;;10.38;41.28
73518;BME280;61766;60.318;25.044;2022-10-03T06:15:06;101025.42;;;10.64;41.33
73518;BME280;61766;60.318;25.044;2022-10-03T06:17:32;101024.03;;;9.99;41.85
73518;BME280;61766;60.318;25.044;2022-10-03T06:19:48;101024.29;;;10.45;41.64
73518;BME280;61766;60.318;25.044;2022-10-03T06:32:04;101023.89;;;10.12;42.40
73518;BME280;61766;60.318;25.044;2022-10-03T06:34:35;101020.65;;;10.03;42.44
73518;BME280;61766;60.318;25.044;2022-10-03T06:36:54;101020.85;;;10.05;42.44
73518;BME280;61766;60.318;25.044;2022-10-03T06:39:23;101023.80;;;10.11;42.29
73518;BME280;61766;60.318;25.044;2022-10-03T06:41:58;101020.02;;;10.20;42.68
73518;BME280;61766;60.318;25.044;2022-10-03T06:44:10;101021.67;;;10.16;42.46
73518;BME280;61766;60.318;25.044;2022-10-03T06:46:40;101020.41;;;10.25;42.50
73518;BME280;61766;60.318;25.044;2022-10-03T06:51:30;101023.57;;;10.07;42.88
73518;BME280;61766;60.318;25.044;2022-10-03T06:58:42;101030.16;;;10.15;42.75
73518;BME280;61766;60.318;25.044;2022-10-03T07:01:05;101030.39;;;10.26;42.98
73518;BME280;61766;60.318;25.044;2022-10-03T07:06:05;101032.69;;;9.92;43.47
73518;BME280;61766;60.318;25.044;2022-10-03T07:08:27;101033.00;;;9.94;43.58
73518;BME280;61766;60.318;25.044;2022-10-03T07:10:47;101030.78;;;10.10;44.41
73518;BME280;61766;60.318;25.044;2022-10-03T07:13:10;101028.88;;;9.84;44.69
73518;BME280;61766;60.318;25.044;2022-10-03T07:15:39;101033.28;;;9.61;44.30
73518;BME280;61766;60.318;25.044;2022-10-03T07:27:46;101027.37;;;10.77;43.32
73518;BME280;61766;60.318;25.044;2022-10-03T07:30:09;101025.89;;;10.95;43.13
73518;BME280;61766;60.318;25.044;2022-10-03T07:32:40;101024.34;;;10.93;42.35
73518;BME280;61766;60.318;25.044;2022-10-03T07:35:07;101026.21;;;10.69;42.95
73518;BME280;61766;60.318;25.044;2022-10-03T07:37:28;101022.27;;;10.85;42.96
73518;BME280;61766;60.318;25.044;2022-10-03T07:52:02;101015.65;;;10.22;44.09
73518;BME280;61766;60.318;25.044;2022-10-03T07:54:28;101015.07;;;10.39;43.68
73518;BME280;61766;60.318;25.044;2022-10-03T07:56:52;101015.01;;;10.74;44.10
73518;BME280;61766;60.318;25.044;2022-10-03T08:01:43;101014.31;;;10.37;43.95
73518;BME280;61766;60.318;25.044;2022-10-03T08:06:23;101012.17;;;11.02;42.87
73518;BME280;61766;60.318;25.044;2022-10-03T08:08:59;101011.37;;;11.11;42.84
73518;BME280;61766;60.318;25.044;2022-10-03T08:11:24;101016.96;;;10.59;43.27
73518;BME280;61766;60.318;25.044;2022-10-03T08:13:49;101014.22;;;10.67;43.43
73518;BME280;61766;60.318;25.044;2022-10-03T08:16:15;101015.83;;;10.82;43.47
73518;BME280;61766;60.318;25.044;2022-10-03T08:20:54;101014.63;;;11.26;42.64
73518;BME280;61766;60.318;25.044;2022-10-03T08:23:32;101012.24;;;11.35;41.82
73518;BME280;61766;60.318;25.044;2022-10-03T08:25:54;101013.77;;;11.43;42.36
73518;BME280;61766;60.318;25.044;2022-10-03T08:28:19;101018.71;;;11.10;42.48
73518;BME280;61766;60.318;25.044;2022-10-03T08:30:42;101019.19;;;10.67;43.48
73518;BME280;61766;60.318;25.044;2022-10-03T08:35:31;101018.02;;;10.47;43.68
73518;BME280;61766;60.318;25.044;2022-10-03T08:47:49;101022.01;;;10.68;44.18
73518;BME280;61766;60.318;25.044;2022-10-03T08:50:09;101022.86;;;10.13;44.03
73518;BME280;61766;60.318;25.044;2022-10-03T08:52:29;101023.89;;;9.45;45.25
73518;BME280;61766;60.318;25.044;2022-10-03T08:54:57;101024.11;;;9.46;45.10
73518;BME280;61766;60.318;25.044;2022-10-03T08:57:19;101025.56;;;10.23;43.86
73518;BME280;61766;60.318;25.044;2022-10-03T09:07:03;101024.69;;;9.89;44.74
73518;BME280;61766;60.318;25.044;2022-10-03T09:16:44;101018.26;;;10.43;44.19
73518;BME280;61766;60.318;25.044;2022-10-03T09:19:07;101016.85;;;9.96;44.32
73518;BME280;61766;60.318;25.044;2022-10-03T09:24:05;101020.56;;;10.55;43.63
73518;BME280;61766;60.318;25.044;2022-10-03T09:28:50;101022.16;;;10.66;43.24
73518;BME280;61766;60.318;25.044;2022-10-03T09:31:14;101014.75;;;11.01;42.63
73518;BME280;61766;60.318;25.044;2022-10-03T09:36:01;101004.74;;;10.27;42.15
73518;BME280;61766;60.318;25.044;2022-10-03T09:38:40;101003.47;;;10.56;42.35
73518;BME280;61766;60.318;25.044;2022-10-03T09:43:23;101004.25;;;10.45;43.88
73518;BME280;61766;60.318;25.044;2022-10-03T09:55:27;100991.33;;;11.33;41.57
73518;BME280;61766;60.318;25.044;2022-10-03T10:00:15;100982.07;;;11.71;41.27
73518;BME280;61766;60.318;25.044;2022-10-03T10:09:58;100976.44;;;12.48;39.47
73518;BME280;61766;60.318;25.044;2022-10-03T10:14:45;100970.43;;;12.43;38.69
73518;BME280;61766;60.318;25.044;2022-10-03T10:19:39;100970.41;;;12.68;39.25
73518;BME280;61766;60.318;25.044;2022-10-03T10:24:31;100969.23;;;12.08;39.12
73518;BME280;61766;60.318;25.044;2022-10-03T10:29:27;100964.92;;;11.66;40.82
73518;BME280;61766;60.318;25.044;2022-10-03T11:00:42;100954.54;;;12.34;39.82
73518;BME280;61766;60.318;25.044;2022-10-03T11:05:37;100950.74;;;12.19;40.37
73518;BME280;61766;60.318;25.044;2022-10-03T11:34:37;100932.32;;;12.43;38.91
73518;BME280;61766;60.318;25.044;2022-10-03T11:37:01;100932.19;;;12.14;39.36
73518;BME280;61766;60.318;25.044;2022-10-03T11:39:20;100929.67;;;12.61;38.83
73518;BME280;61766;60.318;25.044;2022-10-03T11:41:46;100927.41;;;12.78;39.28
73518;BME280;61766;60.318;25.044;2022-10-03T11:44:14;100919.97;;;12.61;38.66
73518;BME280;61766;60.318;25.044;2022-10-03T11:46:42;100921.51;;;12.59;38.42
73518;BME280;61766;60.318;25.044;2022-10-03T11:48:57;100917.38;;;12.76;38.63
73518;BME280;61766;60.318;25.044;2022-10-03T11:51:25;100918.27;;;13.10;38.39
73518;BME280;61766;60.318;25.044;2022-10-03T11:53:45;100918.44;;;12.63;38.62
73518;BME280;61766;60.318;25.044;2022-10-03T11:56:18;100917.46;;;12.15;39.49
73518;BME280;61766;60.318;25.044;2022-10-03T11:58:45;100916.95;;;12.49;39.14
73518;BME280;61766;60.318;25.044;2022-10-03T12:01:13;100914.85;;;12.85;38.95
73518;BME280;61766;60.318;25.044;2022-10-03T12:03:26;100912.34;;;12.45;38.84
73518;BME280;61766;60.318;25.044;2022-10-03T12:05:52;100908.29;;;12.34;38.93
73518;BME280;61766;60.318;25.044;2022-10-03T12:08:23;100909.50;;;12.55;38.52
73518;BME280;61766;60.318;25.044;2022-10-03T12:10:46;100903.24;;;12.20;39.25
73518;BME280;61766;60.318;25.044;2022-10-03T12:13:09;100900.56;;;12.66;38.80
73518;BME280;61766;60.318;25.044;2022-10-03T12:15:33;100899.01;;;12.98;38.39
73518;BME280;61766;60.318;25.044;2022-10-03T12:18:02;100899.37;;;12.99;38.28
73518;BME280;61766;60.318;25.044;2022-10-03T12:20:22;100898.56;;;12.59;38.30
73518;BME280;61766;60.318;25.044;2022-10-03T12:22:47;100899.17;;;13.10;38.10
73518;BME280;61766;60.318;25.044;2022-10-03T12:25:16;100896.67;;;12.70;38.87
73518;BME280;61766;60.318;25.044;2022-10-03T12:27:45;100892.57;;;12.39;38.87
73518;BME280;61766;60.318;25.044;2022-10-03T12:30:04;100896.26;;;12.28;39.42
73518;BME280;61766;60.318;25.044;2022-10-03T12:32:32;100888.24;;;12.32;39.72
73518;BME280;61766;60.318;25.044;2022-10-03T12:34:59;100886.82;;;12.27;39.61
73518;BME280;61766;60.318;25.044;2022-10-03T12:37:33;100882.77;;;12.65;39.11
73518;BME280;61766;60.318;25.044;2022-10-03T12:39:46;100877.80;;;12.69;39.32
73518;BME280;61766;60.318;25.044;2022-10-03T12:42:18;100882.41;;;12.60;39.72
73518;BME280;61766;60.318;25.044;2022-10-03T12:44:41;100876.62;;;12.30;39.75
73518;BME280;61766;60.318;25.044;2022-10-03T12:47:04;100871.42;;;12.35;39.76
73518;BME280;61766;60.318;25.044;2022-10-03T12:49:28;100868.70;;;12.60;39.78
73518;BME280;61766;60.318;25.044;2022-10-03T12:51:53;100868.89;;;12.31;40.55
73518;BME280;61766;60.318;25.044;2022-10-03T12:54:21;100866.22;;;11.65;40.78
73518;BME280;61766;60.318;25.044;2022-10-03T12:56:42;100861.89;;;12.07;40.43
73518;BME280;61766;60.318;25.044;2022-10-03T12:59:10;100855.87;;;12.07;40.31
73518;BME280;61766;60.318;25.044;2022-10-03T13:01:36;100853.26;;;11.65;41.09
73518;BME280;61766;60.318;25.044;2022-10-03T13:03:53;100852.60;;;12.06;40.87
73518;BME280;61766;60.318;25.044;2022-10-03T13:06:26;100848.21;;;12.11;40.62
73518;BME280;61766;60.318;25.044;2022-10-03T13:08:48;100844.06;;;12.75;40.36
73518;BME280;61766;60.318;25.044;2022-10-03T13:11:18;100846.12;;;12.42;40.19
73518;BME280;61766;60.318;25.044;2022-10-03T13:13:43;100840.02;;;12.08;40.53
73518;BME280;61766;60.318;25.044;2022-10-03T13:16:13;100837.85;;;12.20;41.06
73518;BME280;61766;60.318;25.044;2022-10-03T13:18:32;100832.93;;;11.56;42.18
73518;BME280;61766;60.318;25.044;2022-10-03T13:20:54;100830.14;;;12.10;41.42
73518;BME280;61766;60.318;25.044;2022-10-03T13:23:19;100834.21;;;12.37;40.73
73518;BME280;61766;60.318;25.044;2022-10-03T13:25:40;100830.67;;;12.03;41.04
73518;BME280;61766;60.318;25.044;2022-10-03T13:28:07;100827.60;;;12.09;41.41
73518;BME280;61766;60.318;25.044;2022-10-03T13:30:29;100831.93;;;11.50;41.70
73518;BME280;61766;60.318;25.044;2022-10-03T13:32:55;100829.30;;;12.45;41.11
73518;BME280;61766;60.318;25.044;2022-10-03T13:35:21;100829.42;;;12.23;40.85
73518;BME280;61766;60.318;25.044;2022-10-03T13:40:11;100823.66;;;12.33;40.73
73518;BME280;61766;60.318;25.044;2022-10-03T13:42:37;100821.00;;;12.35;40.52
73518;BME280;61766;60.318;25.044;2022-10-03T13:45:01;100823.94;;;12.02;41.06
73518;BME280;61766;60.318;25.044;2022-10-03T13:47:40;100826.91;;;12.31;40.63
73518;BME280;61766;60.318;25.044;2022-10-03T13:49:52;100825.18;;;11.96;40.70
73518;BME280;61766;60.318;25.044;2022-10-03T13:52:18;100830.10;;;11.58;41.00
73518;BME280;61766;60.318;25.044;2022-10-03T13:54:58;100825.82;;;11.74;40.94
73518;BME280;61766;60.318;25.044;2022-10-03T13:57:09;100829.15;;;11.90;40.85
73518;BME280;61766;60.318;25.044;2022-10-03T13:59:37;100832.60;;;11.64;41.39
73518;BME280;61766;60.318;25.044;2022-10-03T14:02:01;100828.82;;;11.45;41.42
73518;BME280;61766;60.318;25.044;2022-10-03T14:04:35;100825.55;;;11.69;41.28
73518;BME280;61766;60.318;25.044;2022-10-03T14:06:46;100823.08;;;11.96;41.00
73518;BME280;61766;60.318;25.044;2022-10-03T14:11:41;100814.65;;;11.59;41.39
73518;BME280;61766;60.318;25.044;2022-10-03T14:14:10;100816.88;;;11.62;41.31
73518;BME280;61766;60.318;25.044;2022-10-03T14:16:27;100815.90;;;11.63;40.92
73518;BME280;61766;60.318;25.044;2022-10-03T14:18:55;100816.67;;;11.28;41.61
73518;BME280;61766;60.318;25.044;2022-10-03T14:23:42;100810.79;;;12.08;40.39
73518;BME280;61766;60.318;25.044;2022-10-03T14:26:12;100810.10;;;11.93;40.63
73518;BME280;61766;60.318;25.044;2022-10-03T14:28:34;100810.32;;;11.94;40.42
73518;BME280;61766;60.318;25.044;2022-10-03T14:31:01;100804.54;;;12.31;40.10
73518;BME280;61766;60.318;25.044;2022-10-03T14:33:22;100801.86;;;11.92;40.30
73518;BME280;61766;60.318;25.044;2022-10-03T14:35:53;100799.89;;;11.95;40.90
73518;BME280;61766;60.318;25.044;2022-10-03T14:38:23;100793.09;;;12.09;40.12
73518;BME280;61766;60.318;25.044;2022-10-03T14:40:40;100790.52;;;11.80;40.83
73518;BME280;61766;60.318;25.044;2022-10-03T14:43:12;100790.26;;;12.04;40.11
73518;BME280;61766;60.318;25.044;2022-10-03T14:45:28;100784.09;;;12.19;40.13
73518;BME280;61766;60.318;25.044;2022-10-03T14:47:54;100784.64;;;12.19;40.08
73518;BME280;61766;60.318;25.044;2022-10-03T14:50:21;100783.05;;;12.41;40.02
73518;BME280;61766;60.318;25.044;2022-10-03T14:52:43;100780.44;;;12.17;40.13
73518;BME280;61766;60.318;25.044;2022-10-03T14:55:11;100779.53;;;11.92;40.49
73518;BME280;61766;60.318;25.044;2022-10-03T14:57:33;100771.33;;;12.06;40.28
73518;BME280;61766;60.318;25.044;2022-10-03T14:59:56;100769.55;;;11.65;40.57
73518;BME280;61766;60.318;25.044;2022-10-03T15:02:27;100764.96;;;12.40;40.03
73518;BME280;61766;60.318;25.044;2022-10-03T15:04:46;100763.48;;;12.61;39.39
73518;BME280;61766;60.318;25.044;2022-10-03T15:07:12;100755.70;;;12.39;39.63
73518;BME280;61766;60.318;25.044;2022-10-03T15:09:44;100754.12;;;12.50;39.71
73518;BME280;61766;60.318;25.044;2022-10-03T15:12:05;100754.04;;;12.36;39.32
73518;BME280;61766;60.318;25.044;2022-10-03T15:14:27;100753.41;;;12.17;39.57
73518;BME280;61766;60.318;25.044;2022-10-03T15:16:53;100749.73;;;12.65;39.02
73518;BME280;61766;60.318;25.044;2022-10-03T15:19:19;100751.17;;;12.61;39.14
73518;BME280;61766;60.318;25.044;2022-10-03T15:21:43;100746.20;;;12.52;39.12
73518;BME280;61766;60.318;25.044;2022-10-03T15:24:07;100744.81;;;12.75;38.49
73518;BME280;61766;60.318;25.044;2022-10-03T15:26:34;100742.95;;;13.05;38.47
73518;BME280;61766;60.318;25.044;2022-10-03T15:28:57;100736.17;;;12.86;38.65
73518;BME280;61766;60.318;25.044;2022-10-03T15:31:31;100735.15;;;13.09;38.41
73518;BME280;61766;60.318;25.044;2022-10-03T15:33:50;100729.64;;;12.90;38.22
73518;BME280;61766;60.318;25.044;2022-10-03T15:36:21;100730.66;;;12.67;38.58
73518;BME280;61766;60.318;25.044;2022-10-03T15:38:39;100732.41;;;12.88;38.56
73518;BME280;61766;60.318;25.044;2022-10-03T15:41:08;100734.64;;;12.79;38.83
73518;BME280;61766;60.318;25.044;2022-10-03T15:43:31;100733.22;;;12.89;38.73
73518;BME280;61766;60.318;25.044;2022-10-03T15:45:54;100735.25;;;12.96;38.30
73518;BME280;61766;60.318;25.044;2022-10-03T15:48:19;100731.12;;;13.12;37.97
73518;BME280;61766;60.318;25.044;2022-10-03T15:50:48;100727.88;;;12.81;38.62
73518;BME280;61766;60.318;25.044;2022-10-03T15:53:14;100720.73;;;12.43;38.90
73518;BME280;61766;60.318;25.044;2022-10-03T15:55:34;100715.19;;;12.87;38.66
73518;BME280;61766;60.318;25.044;2022-10-03T15:58:04;100713.63;;;12.88;38.52
73518;BME280;61766;60.318;25.044;2022-10-03T16:00:27;100711.83;;;12.97;38.41
73518;BME280;61766;60.318;25.044;2022-10-03T16:02:52;100710.99;;;12.87;38.27
73518;BME280;61766;60.318;25.044;2022-10-03T16:05:16;100706.62;;;12.27;38.54
73518;BME280;61766;60.318;25.044;2022-10-03T16:07:42;100704.60;;;12.66;38.69
73518;BME280;61766;60.318;25.044;2022-10-03T16:10:13;100707.35;;;12.37;38.90
73518;BME280;61766;60.318;25.044;2022-10-03T16:15:00;100703.24;;;11.80;40.48
73518;BME280;61766;60.318;25.044;2022-10-03T16:17:24;100704.35;;;11.90;40.40
73518;BME280;61766;60.318;25.044;2022-10-03T16:19:51;100698.15;;;11.89;40.39